createdAt,value
2018-09-12T00:02:25.106Z,79.5
2018-09-12T00:07:24.869Z,79
2018-09-12T00:12:24.894Z,81.9
2018-09-12T00:17:24.896Z,82.3
2018-09-12T00:22:24.865Z,82.5
2018-09-12T00:27:24.898Z,82.8
2018-09-12T00:32:26.900Z,83.5
2018-09-12T00:37:26.756Z,83.3
2018-09-12T00:42:39.213Z,84.5
2018-09-12T00:47:39.142Z,83.5
2018-09-12T00:52:39.198Z,83.1
2018-09-12T00:57:38.925Z,83
2018-09-12T01:02:38.905Z,83.6
2018-09-12T01:07:39.485Z,84.9
2018-09-12T01:12:39.491Z,84.7
2018-09-12T01:17:41.487Z,86.2
2018-09-12T01:22:41.396Z,86.4
2018-09-12T01:27:53.478Z,85.9
2018-09-12T01:32:53.349Z,85.2
2018-09-12T01:37:53.315Z,85.6
2018-09-12T01:42:54.341Z,84
2018-09-12T01:47:53.197Z,84.4
2018-09-12T01:52:53.211Z,86.6
2018-09-12T01:57:53.227Z,85.7
2018-09-12T02:02:58.595Z,84.4
2018-09-12T02:07:58.516Z,84
2018-09-12T02:13:10.972Z,84.1
2018-09-12T02:18:10.854Z,85.3
2018-09-12T02:23:10.701Z,85.8
2018-09-12T02:28:10.651Z,86.8
2018-09-12T02:33:10.878Z,86.5
2018-09-12T02:38:10.832Z,85.8
2018-09-12T02:43:11.068Z,86.9
2018-09-12T02:48:12.092Z,87.2
2018-09-12T02:53:11.927Z,85.5
2018-09-12T02:58:24.457Z,85.4
2018-09-12T03:03:24.182Z,86
2018-09-12T03:08:24.422Z,86.3
2018-09-12T03:13:24.455Z,86.4
2018-09-12T03:18:24.312Z,85.4
2018-09-12T03:23:24.322Z,87.2
2018-09-12T03:28:24.184Z,87.7
2018-09-12T03:33:24.588Z,87.2
2018-09-12T03:38:24.535Z,86.4
2018-09-12T03:43:36.452Z,87.5
2018-09-12T03:48:36.127Z,87
2018-09-12T03:53:36.182Z,88
2018-09-12T03:58:36.173Z,86.9
2018-09-12T04:03:36.375Z,87.6
2018-09-12T04:08:36.197Z,87.3
2018-09-12T04:13:36.169Z,87.6
2018-09-12T04:18:41.153Z,87.7
2018-09-12T04:23:40.892Z,87.7
2018-09-12T04:28:48.137Z,87.7
2018-09-12T04:33:47.845Z,88.3
2018-09-12T04:38:47.856Z,88.4
2018-09-12T04:43:47.888Z,88.4
2018-09-12T04:48:47.887Z,89
2018-09-12T04:53:47.868Z,88.7
2018-09-12T04:58:48.127Z,88.1
2018-09-12T05:03:48.049Z,89
2018-09-12T05:08:48.098Z,90
2018-09-12T05:13:47.853Z,89.9
2018-09-12T05:18:48.036Z,89.2
2018-09-12T05:23:47.889Z,88.5
2018-09-12T05:28:48.448Z,89.5
2018-09-12T05:33:48.364Z,87.8
2018-09-12T05:39:00.839Z,88.2
2018-09-12T05:44:00.492Z,88.1
2018-09-12T05:49:00.486Z,88.3
2018-09-12T05:54:00.501Z,86.7
2018-09-12T05:59:00.712Z,86.1
2018-09-12T06:04:00.524Z,86.6
2018-09-12T06:09:00.533Z,85.1
2018-09-12T06:14:02.406Z,85.1
2018-09-12T06:19:01.843Z,85.4
2018-09-12T06:24:15.981Z,85.4
2018-09-12T06:29:18.857Z,82.7
2018-09-12T06:34:15.675Z,81.3
2018-09-12T06:39:15.826Z,81.8
2018-09-12T06:44:15.874Z,80.3
2018-09-12T06:49:16.784Z,77.5
2018-09-12T06:54:16.945Z,78.4
2018-09-12T06:59:17.129Z,77.2
2018-09-12T07:04:16.857Z,77.2
2018-09-12T07:09:29.485Z,74.1
2018-09-12T07:14:29.208Z,73
2018-09-12T07:19:29.237Z,72.2
2018-09-12T07:24:29.595Z,71.6
2018-09-12T07:29:29.209Z,70.9
2018-09-12T07:34:29.177Z,70.2
2018-09-12T07:39:29.448Z,69.5
2018-09-12T07:44:30.299Z,67.6
2018-09-12T07:49:30.126Z,67.5
2018-09-12T07:54:47.847Z,67.3
2018-09-12T07:59:47.584Z,66.1
2018-09-12T08:04:52.407Z,64.8
2018-09-12T08:09:52.301Z,65.5
2018-09-12T08:15:03.045Z,66.4
2018-09-12T08:20:02.598Z,64.6
2018-09-12T08:25:02.595Z,63.3
2018-09-12T08:30:02.765Z,63.2
2018-09-12T08:35:02.618Z,62.2
2018-09-12T08:40:02.759Z,61.3
2018-09-12T08:45:02.775Z,59.4
2018-09-12T08:50:03.279Z,59
2018-09-12T08:55:02.958Z,59.6
2018-09-12T09:00:15.668Z,58.7
2018-09-12T09:05:15.400Z,58.5
2018-09-12T09:10:15.447Z,58.4
2018-09-12T09:15:15.485Z,56.9
2018-09-12T09:20:15.397Z,58.3
2018-09-12T09:25:15.438Z,57
2018-09-12T09:30:15.238Z,57.5
2018-09-12T09:35:16.247Z,56.7
2018-09-12T09:40:15.680Z,54.5
2018-09-12T09:45:28.795Z,52.8
2018-09-12T09:50:28.311Z,52.6
2018-09-12T09:55:28.540Z,53.2
2018-09-12T10:00:28.809Z,53.1
2018-09-12T10:05:28.326Z,51.6
2018-09-12T10:10:30.125Z,52.1
2018-09-12T10:15:30.147Z,50.5
2018-09-12T10:20:30.165Z,50.5
2018-09-12T10:25:30.156Z,49.3
2018-09-12T10:30:42.787Z,51.5
2018-09-12T10:35:42.759Z,51.9
2018-09-12T10:40:42.517Z,50.4
2018-09-12T10:45:42.764Z,48.8
2018-09-12T10:50:42.783Z,47.8
2018-09-12T10:55:42.798Z,48.9
2018-09-12T11:00:43.023Z,48.2
2018-09-12T11:05:42.840Z,48.2
2018-09-12T11:10:42.804Z,47.8
2018-09-12T11:15:42.817Z,47.4
2018-09-12T11:20:42.941Z,46.7
2018-09-12T11:25:42.819Z,46.5
2018-09-12T11:30:46.253Z,45.8
2018-09-12T11:35:45.906Z,42.7
2018-09-12T11:40:59.132Z,43.1
2018-09-12T11:45:58.968Z,43.5
2018-09-12T11:50:58.828Z,42.6
2018-09-12T11:55:58.842Z,41.5
2018-09-12T12:00:59.098Z,40.9
2018-09-12T12:05:59.072Z,39.9
2018-09-12T12:10:59.062Z,39.6
2018-09-12T12:15:59.078Z,41.5
2018-09-12T12:20:59.000Z,40
2018-09-12T12:25:59.077Z,40.6
2018-09-12T12:30:58.912Z,39.4
2018-09-12T12:35:58.987Z,37.6
2018-09-12T12:40:59.248Z,37.6
2018-09-12T12:45:58.969Z,39.3
2018-09-12T12:51:11.627Z,38.6
2018-09-12T12:56:11.444Z,38.1
2018-09-12T13:01:11.521Z,37.7
2018-09-12T13:06:11.408Z,38.6
2018-09-12T13:11:11.446Z,38.4
2018-09-12T13:16:11.247Z,39
2018-09-12T13:21:11.589Z,38.2
2018-09-12T13:26:13.071Z,37.2
2018-09-12T13:31:12.784Z,37.1
2018-09-12T13:36:25.077Z,37.3
2018-09-12T13:41:24.983Z,37.8
2018-09-12T13:46:24.765Z,36
2018-09-12T13:51:24.927Z,36.2
2018-09-12T13:56:25.084Z,35.7
2018-09-12T14:01:25.447Z,33.5
2018-09-12T14:06:25.076Z,34.3
2018-09-12T14:11:25.133Z,35.4
2018-09-12T14:16:25.330Z,35.3
2018-09-12T14:21:25.770Z,34.6
2018-09-12T14:26:25.127Z,36
2018-09-12T14:31:25.129Z,34.8
2018-09-12T14:36:25.513Z,37
2018-09-12T14:41:25.424Z,35.9
2018-09-12T14:46:38.706Z,37.5
2018-09-12T14:51:38.360Z,37.5
2018-09-12T14:56:38.186Z,34.9
2018-09-12T15:01:38.304Z,36.1
2018-09-12T15:06:38.190Z,36.6
2018-09-12T15:11:38.178Z,37.1
2018-09-12T15:16:38.188Z,37.2
2018-09-12T15:21:38.365Z,37.3
2018-09-12T15:26:38.349Z,36.7
2018-09-12T15:31:52.024Z,35.1
2018-09-12T15:36:51.763Z,37.3
2018-09-12T15:41:51.987Z,37
2018-09-12T15:46:51.928Z,36.2
2018-09-12T15:51:52.002Z,36
2018-09-12T15:56:54.064Z,37.1
2018-09-12T16:01:53.736Z,36.2
2018-09-12T16:06:53.919Z,36.3
2018-09-12T16:11:53.799Z,37.8
2018-09-12T16:16:53.888Z,38.8
2018-09-12T16:21:53.788Z,39.2
2018-09-12T16:26:53.955Z,39.9
2018-09-12T16:31:53.814Z,40.9
2018-09-12T16:36:53.758Z,42.3
2018-09-12T16:42:05.470Z,43.6
2018-09-12T16:47:05.248Z,44.9
2018-09-12T16:52:05.214Z,45.9
2018-09-12T16:57:05.253Z,46.5
2018-09-12T17:02:05.226Z,47.6
2018-09-12T17:07:05.227Z,49.1
2018-09-12T17:12:05.224Z,50.9
2018-09-12T17:17:05.267Z,52
2018-09-12T17:22:05.229Z,54.3
2018-09-12T17:27:16.804Z,52.9
2018-09-12T17:32:16.595Z,55.5
2018-09-12T17:37:16.568Z,57.2
2018-09-12T17:42:16.621Z,57
2018-09-12T17:47:16.545Z,57.8
2018-09-12T17:52:16.549Z,59
2018-09-12T17:57:16.711Z,58.6
2018-09-12T18:02:17.467Z,59.7
2018-09-12T18:07:17.387Z,60.5
2018-09-12T18:12:31.807Z,61.8
2018-09-12T18:17:30.366Z,61.9
2018-09-12T18:22:30.411Z,62.2
2018-09-12T18:27:30.366Z,63.9
2018-09-12T18:32:30.351Z,63.9
2018-09-12T18:37:30.376Z,65.4
2018-09-12T18:42:30.390Z,64.7
2018-09-12T18:47:30.351Z,66.8
2018-09-12T18:52:30.405Z,66.9
2018-09-12T18:57:30.654Z,66.7
2018-09-12T19:02:30.584Z,67.9
2018-09-12T19:07:30.579Z,67.9
2018-09-12T19:12:31.456Z,68.7
2018-09-12T19:17:31.304Z,69.3
2018-09-12T19:22:44.168Z,70.3
2018-09-12T19:27:43.969Z,70.3
2018-09-12T19:32:43.915Z,71.2
2018-09-12T19:37:44.146Z,71.6
2018-09-12T19:42:43.883Z,72
2018-09-12T19:47:44.170Z,71.9
2018-09-12T19:52:43.839Z,70.9
2018-09-12T19:57:44.031Z,72.5
2018-09-12T20:02:44.098Z,71.9
2018-09-12T20:07:43.900Z,71.7
2018-09-12T20:12:44.029Z,73
2018-09-12T20:17:44.127Z,73.5
2018-09-12T20:22:45.055Z,73.2
2018-09-12T20:27:44.636Z,75.7
2018-09-12T20:32:56.775Z,75
2018-09-12T20:37:56.527Z,74.6
2018-09-12T20:42:56.683Z,75
2018-09-12T20:47:56.686Z,75.5
2018-09-12T20:52:56.540Z,75.2
2018-09-12T20:57:56.533Z,76.4
2018-09-12T21:02:56.802Z,76.4
2018-09-12T21:07:56.915Z,75.8
2018-09-12T21:12:56.776Z,75.9
2018-09-12T21:18:09.306Z,76.8
2018-09-12T21:23:08.786Z,75.7
2018-09-12T21:28:08.843Z,77.2
2018-09-12T21:33:08.936Z,77.6
2018-09-12T21:38:08.935Z,78.1
2018-09-12T21:43:08.801Z,76.8
2018-09-12T21:48:08.830Z,76.6
2018-09-12T21:53:08.986Z,78.1
2018-09-12T21:58:08.834Z,77.9
2018-09-12T22:03:08.821Z,77.3
2018-09-12T22:08:09.389Z,77.2
2018-09-12T22:13:08.822Z,78.5
2018-09-12T22:18:08.839Z,78.8
2018-09-12T22:23:08.958Z,78.8
2018-09-12T22:28:21.082Z,79.7
2018-09-12T22:33:20.946Z,78.4
2018-09-12T22:38:20.975Z,77.6
2018-09-12T22:43:20.835Z,79.2
2018-09-12T22:48:21.066Z,79.2
2018-09-12T22:53:20.853Z,78.5
2018-09-12T22:58:21.005Z,79.1
2018-09-12T23:03:22.805Z,79.8
2018-09-12T23:08:22.718Z,80
2018-09-12T23:13:32.712Z,79.3
2018-09-12T23:18:32.450Z,78.5
2018-09-12T23:23:32.646Z,80.5
2018-09-12T23:28:32.569Z,81.7
2018-09-12T23:33:32.460Z,82.2
2018-09-12T23:38:32.479Z,83
2018-09-12T23:43:32.543Z,85.3
2018-09-12T23:48:32.613Z,84.5
2018-09-12T23:53:32.661Z,83.6
2018-09-12T23:58:32.431Z,84.8
